sensor_id;sensor_type;location;lat;lon;timestamp;temperature;humidity
21335;DHT22;69435;52.670;13.544;2023-12-20T00:01:12;9.10;74.30
21335;DHT22;69435;52.670;13.544;2023-12-20T00:03:58;9.10;74.20
21335;DHT22;69435;52.670;13.544;2023-12-20T00:06:44;9.10;74.20
21335;DHT22;69435;52.670;13.544;2023-12-20T00:09:30;9.10;74.10
21335;DHT22;69435;52.670;13.544;2023-12-20T00:12:16;9.10;74.30
21335;DHT22;69435;52.670;13.544;2023-12-20T00:15:02;9.10;74.30
21335;DHT22;69435;52.670;13.544;2023-12-20T00:17:49;9.10;74.20
21335;DHT22;69435;52.670;13.544;2023-12-20T00:20:34;9.10;74.30
21335;DHT22;69435;52.670;13.544;2023-12-20T00:23:21;9.10;74.20
21335;DHT22;69435;52.670;13.544;2023-12-20T00:26:08;9.10;74.10
21335;DHT22;69435;52.670;13.544;2023-12-20T00:28:54;9.10;74.10
21335;DHT22;69435;52.670;13.544;2023-12-20T00:31:40;9.10;74.30
21335;DHT22;69435;52.670;13.544;2023-12-20T00:34:26;9.10;74.30
21335;DHT22;69435;52.670;13.544;2023-12-20T00:37:12;9.10;74.30
21335;DHT22;69435;52.670;13.544;2023-12-20T00:39:58;9.10;74.50
21335;DHT22;69435;52.670;13.544;2023-12-20T00:42:44;9.10;74.50
21335;DHT22;69435;52.670;13.544;2023-12-20T00:45:32;9.10;74.50
21335;DHT22;69435;52.670;13.544;2023-12-20T00:48:18;9.10;74.50
21335;DHT22;69435;52.670;13.544;2023-12-20T00:51:04;9.10;74.40
21335;DHT22;69435;52.670;13.544;2023-12-20T00:53:50;9.10;74.40
21335;DHT22;69435;52.670;13.544;2023-12-20T00:56:40;9.10;74.30
21335;DHT22;69435;52.670;13.544;2023-12-20T00:59:26;9.10;74.30
21335;DHT22;69435;52.670;13.544;2023-12-20T01:02:12;9.00;74.40
21335;DHT22;69435;52.670;13.544;2023-12-20T01:04:58;9.00;74.60
21335;DHT22;69435;52.670;13.544;2023-12-20T01:07:44;9.00;74.50
21335;DHT22;69435;52.670;13.544;2023-12-20T01:10:30;9.00;74.60
21335;DHT22;69435;52.670;13.544;2023-12-20T01:13:16;9.00;74.60
21335;DHT22;69435;52.670;13.544;2023-12-20T01:16:02;9.00;74.70
21335;DHT22;69435;52.670;13.544;2023-12-20T01:18:48;9.00;74.80
21335;DHT22;69435;52.670;13.544;2023-12-20T01:21:35;9.10;74.70
21335;DHT22;69435;52.670;13.544;2023-12-20T01:24:21;9.00;74.70
21335;DHT22;69435;52.670;13.544;2023-12-20T01:27:07;9.00;74.80
21335;DHT22;69435;52.670;13.544;2023-12-20T01:29:53;9.00;74.80
21335;DHT22;69435;52.670;13.544;2023-12-20T01:32:39;9.10;74.90
21335;DHT22;69435;52.670;13.544;2023-12-20T01:35:24;9.00;74.80
21335;DHT22;69435;52.670;13.544;2023-12-20T01:38:10;9.10;75.00
21335;DHT22;69435;52.670;13.544;2023-12-20T01:40:56;9.10;74.90
21335;DHT22;69435;52.670;13.544;2023-12-20T01:43:42;9.10;74.90
21335;DHT22;69435;52.670;13.544;2023-12-20T01:46:28;9.10;75.00
21335;DHT22;69435;52.670;13.544;2023-12-20T01:49:15;9.00;74.80
21335;DHT22;69435;52.670;13.544;2023-12-20T01:52:02;9.10;75.00
21335;DHT22;69435;52.670;13.544;2023-12-20T01:54:48;9.00;74.70
21335;DHT22;69435;52.670;13.544;2023-12-20T01:57:34;9.00;74.50
21335;DHT22;69435;52.670;13.544;2023-12-20T02:00:21;9.00;74.60
21335;DHT22;69435;52.670;13.544;2023-12-20T02:03:12;9.00;74.70
21335;DHT22;69435;52.670;13.544;2023-12-20T02:05:58;9.00;74.70
21335;DHT22;69435;52.670;13.544;2023-12-20T02:08:44;9.00;74.60
21335;DHT22;69435;52.670;13.544;2023-12-20T02:11:30;9.10;74.70
21335;DHT22;69435;52.670;13.544;2023-12-20T02:14:16;9.10;74.50
21335;DHT22;69435;52.670;13.544;2023-12-20T02:17:03;9.00;74.40
21335;DHT22;69435;52.670;13.544;2023-12-20T02:19:49;9.10;74.40
21335;DHT22;69435;52.670;13.544;2023-12-20T02:22:35;9.10;74.20
21335;DHT22;69435;52.670;13.544;2023-12-20T02:25:21;9.10;74.10
21335;DHT22;69435;52.670;13.544;2023-12-20T02:28:07;9.00;74.10
21335;DHT22;69435;52.670;13.544;2023-12-20T02:30:54;9.10;73.90
21335;DHT22;69435;52.670;13.544;2023-12-20T02:33:39;9.00;73.80
21335;DHT22;69435;52.670;13.544;2023-12-20T02:36:27;9.00;73.70
21335;DHT22;69435;52.670;13.544;2023-12-20T02:39:14;9.00;73.50
21335;DHT22;69435;52.670;13.544;2023-12-20T02:42:00;9.00;73.40
21335;DHT22;69435;52.670;13.544;2023-12-20T02:44:46;9.00;73.40
21335;DHT22;69435;52.670;13.544;2023-12-20T02:47:31;9.00;73.40
21335;DHT22;69435;52.670;13.544;2023-12-20T02:50:17;8.90;73.30
21335;DHT22;69435;52.670;13.544;2023-12-20T02:53:03;9.00;73.40
21335;DHT22;69435;52.670;13.544;2023-12-20T02:55:49;8.90;73.40
21335;DHT22;69435;52.670;13.544;2023-12-20T02:58:35;9.00;73.30
21335;DHT22;69435;52.670;13.544;2023-12-20T03:01:21;8.90;73.00
21335;DHT22;69435;52.670;13.544;2023-12-20T03:04:07;8.90;73.00
21335;DHT22;69435;52.670;13.544;2023-12-20T03:06:53;8.90;72.80
21335;DHT22;69435;52.670;13.544;2023-12-20T03:09:39;8.80;72.90
21335;DHT22;69435;52.670;13.544;2023-12-20T03:12:25;8.80;73.10
21335;DHT22;69435;52.670;13.544;2023-12-20T03:15:11;8.80;73.10
21335;DHT22;69435;52.670;13.544;2023-12-20T03:17:58;8.80;73.20
21335;DHT22;69435;52.670;13.544;2023-12-20T03:20:45;8.80;73.10
21335;DHT22;69435;52.670;13.544;2023-12-20T03:23:33;8.80;73.00
21335;DHT22;69435;52.670;13.544;2023-12-20T03:26:19;8.80;72.90
21335;DHT22;69435;52.670;13.544;2023-12-20T03:29:05;8.70;72.80
21335;DHT22;69435;52.670;13.544;2023-12-20T03:31:51;8.70;72.80
21335;DHT22;69435;52.670;13.544;2023-12-20T03:34:36;8.60;72.70
21335;DHT22;69435;52.670;13.544;2023-12-20T03:37:23;8.60;72.70
21335;DHT22;69435;52.670;13.544;2023-12-20T03:40:09;8.60;72.60
21335;DHT22;69435;52.670;13.544;2023-12-20T03:42:56;8.50;72.70
21335;DHT22;69435;52.670;13.544;2023-12-20T03:45:42;8.50;72.90
21335;DHT22;69435;52.670;13.544;2023-12-20T03:48:29;8.50;72.80
21335;DHT22;69435;52.670;13.544;2023-12-20T03:51:15;8.40;72.70
21335;DHT22;69435;52.670;13.544;2023-12-20T03:54:01;8.40;72.70
21335;DHT22;69435;52.670;13.544;2023-12-20T03:56:47;8.40;72.60
21335;DHT22;69435;52.670;13.544;2023-12-20T03:59:37;8.40;72.40
21335;DHT22;69435;52.670;13.544;2023-12-20T04:02:23;8.30;72.40
21335;DHT22;69435;52.670;13.544;2023-12-20T04:05:09;8.30;72.30
21335;DHT22;69435;52.670;13.544;2023-12-20T04:07:56;8.30;72.20
21335;DHT22;69435;52.670;13.544;2023-12-20T04:10:42;8.30;72.20
21335;DHT22;69435;52.670;13.544;2023-12-20T04:13:28;8.20;72.10
21335;DHT22;69435;52.670;13.544;2023-12-20T04:16:13;8.20;72.10
21335;DHT22;69435;52.670;13.544;2023-12-20T04:18:59;8.20;72.10
21335;DHT22;69435;52.670;13.544;2023-12-20T04:21:46;8.10;72.10
21335;DHT22;69435;52.670;13.544;2023-12-20T04:24:32;8.10;72.00
21335;DHT22;69435;52.670;13.544;2023-12-20T04:27:18;8.10;72.00
21335;DHT22;69435;52.670;13.544;2023-12-20T04:30:04;8.10;71.90
21335;DHT22;69435;52.670;13.544;2023-12-20T04:32:51;8.10;71.90
21335;DHT22;69435;52.670;13.544;2023-12-20T04:35:37;8.00;71.70
21335;DHT22;69435;52.670;13.544;2023-12-20T04:38:23;8.00;72.50
21335;DHT22;69435;52.670;13.544;2023-12-20T04:41:09;8.00;71.60
21335;DHT22;69435;52.670;13.544;2023-12-20T04:43:55;7.90;71.60
21335;DHT22;69435;52.670;13.544;2023-12-20T04:46:41;7.80;71.50
21335;DHT22;69435;52.670;13.544;2023-12-20T04:49:27;7.80;71.50
21335;DHT22;69435;52.670;13.544;2023-12-20T04:52:14;7.80;71.90
21335;DHT22;69435;52.670;13.544;2023-12-20T04:55:00;7.70;72.00
21335;DHT22;69435;52.670;13.544;2023-12-20T04:57:46;7.70;72.60
21335;DHT22;69435;52.670;13.544;2023-12-20T05:00:33;7.70;72.30
21335;DHT22;69435;52.670;13.544;2023-12-20T05:03:19;7.70;72.40
21335;DHT22;69435;52.670;13.544;2023-12-20T05:06:05;7.70;72.40
21335;DHT22;69435;52.670;13.544;2023-12-20T05:08:51;7.70;72.60
21335;DHT22;69435;52.670;13.544;2023-12-20T05:11:37;7.70;72.70
21335;DHT22;69435;52.670;13.544;2023-12-20T05:14:23;7.70;72.80
21335;DHT22;69435;52.670;13.544;2023-12-20T05:17:10;7.80;72.80
21335;DHT22;69435;52.670;13.544;2023-12-20T05:19:56;7.80;72.50
21335;DHT22;69435;52.670;13.544;2023-12-20T05:22:42;7.80;72.50
21335;DHT22;69435;52.670;13.544;2023-12-20T05:25:28;7.80;72.30
21335;DHT22;69435;52.670;13.544;2023-12-20T05:28:14;7.80;72.20
21335;DHT22;69435;52.670;13.544;2023-12-20T05:31:01;7.80;72.10
21335;DHT22;69435;52.670;13.544;2023-12-20T05:33:47;7.70;71.80
21335;DHT22;69435;52.670;13.544;2023-12-20T05:36:33;7.70;71.80
21335;DHT22;69435;52.670;13.544;2023-12-20T05:39:19;7.60;71.50
21335;DHT22;69435;52.670;13.544;2023-12-20T05:42:05;7.60;71.70
21335;DHT22;69435;52.670;13.544;2023-12-20T05:44:51;7.60;71.30
21335;DHT22;69435;52.670;13.544;2023-12-20T05:47:37;7.50;71.40
21335;DHT22;69435;52.670;13.544;2023-12-20T05:50:22;7.50;71.30
21335;DHT22;69435;52.670;13.544;2023-12-20T05:53:08;7.40;71.10
21335;DHT22;69435;52.670;13.544;2023-12-20T05:55:54;7.40;71.30
21335;DHT22;69435;52.670;13.544;2023-12-20T05:58:40;7.40;71.30
21335;DHT22;69435;52.670;13.544;2023-12-20T06:01:26;7.30;71.20
21335;DHT22;69435;52.670;13.544;2023-12-20T06:04:12;7.20;71.20
21335;DHT22;69435;52.670;13.544;2023-12-20T06:06:59;7.20;71.10
21335;DHT22;69435;52.670;13.544;2023-12-20T06:09:45;7.20;71.30
21335;DHT22;69435;52.670;13.544;2023-12-20T06:12:31;7.20;71.40
21335;DHT22;69435;52.670;13.544;2023-12-20T06:15:19;7.20;71.50
21335;DHT22;69435;52.670;13.544;2023-12-20T06:18:06;7.20;71.60
21335;DHT22;69435;52.670;13.544;2023-12-20T06:20:52;7.20;71.50
21335;DHT22;69435;52.670;13.544;2023-12-20T06:23:38;7.30;71.60
21335;DHT22;69435;52.670;13.544;2023-12-20T06:26:24;7.30;71.50
21335;DHT22;69435;52.670;13.544;2023-12-20T06:29:10;7.20;71.20
21335;DHT22;69435;52.670;13.544;2023-12-20T06:31:56;7.20;70.90
21335;DHT22;69435;52.670;13.544;2023-12-20T06:34:42;7.20;71.10
21335;DHT22;69435;52.670;13.544;2023-12-20T06:37:28;7.10;71.70
21335;DHT22;69435;52.670;13.544;2023-12-20T06:40:14;7.10;71.10
21335;DHT22;69435;52.670;13.544;2023-12-20T06:43:00;7.10;71.20
21335;DHT22;69435;52.670;13.544;2023-12-20T06:45:46;7.10;71.20
21335;DHT22;69435;52.670;13.544;2023-12-20T06:48:32;7.20;71.30
21335;DHT22;69435;52.670;13.544;2023-12-20T06:51:18;7.10;71.10
21335;DHT22;69435;52.670;13.544;2023-12-20T06:54:05;7.10;71.10
21335;DHT22;69435;52.670;13.544;2023-12-20T06:56:52;7.10;71.10
21335;DHT22;69435;52.670;13.544;2023-12-20T06:59:41;7.20;71.10
21335;DHT22;69435;52.670;13.544;2023-12-20T07:02:27;7.10;71.10
21335;DHT22;69435;52.670;13.544;2023-12-20T07:05:19;7.10;71.10
21335;DHT22;69435;52.670;13.544;2023-12-20T07:08:05;7.10;71.10
21335;DHT22;69435;52.670;13.544;2023-12-20T07:10:52;7.20;71.10
21335;DHT22;69435;52.670;13.544;2023-12-20T07:13:38;7.20;71.10
21335;DHT22;69435;52.670;13.544;2023-12-20T07:16:23;7.20;71.10
21335;DHT22;69435;52.670;13.544;2023-12-20T07:19:10;7.20;71.10
21335;DHT22;69435;52.670;13.544;2023-12-20T07:21:56;7.20;71.00
21335;DHT22;69435;52.670;13.544;2023-12-20T07:24:42;7.20;71.00
21335;DHT22;69435;52.670;13.544;2023-12-20T07:27:28;7.20;71.00
21335;DHT22;69435;52.670;13.544;2023-12-20T07:30:14;7.20;71.20
21335;DHT22;69435;52.670;13.544;2023-12-20T07:33:00;7.20;71.30
21335;DHT22;69435;52.670;13.544;2023-12-20T07:35:46;7.30;71.50
21335;DHT22;69435;52.670;13.544;2023-12-20T07:38:32;7.30;71.20
21335;DHT22;69435;52.670;13.544;2023-12-20T07:41:18;7.30;71.20
21335;DHT22;69435;52.670;13.544;2023-12-20T07:44:06;7.30;71.00
21335;DHT22;69435;52.670;13.544;2023-12-20T07:46:53;7.30;71.00
21335;DHT22;69435;52.670;13.544;2023-12-20T07:49:39;7.30;71.00
21335;DHT22;69435;52.670;13.544;2023-12-20T07:52:25;7.30;70.90
21335;DHT22;69435;52.670;13.544;2023-12-20T07:55:11;7.40;71.00
21335;DHT22;69435;52.670;13.544;2023-12-20T07:57:58;7.30;70.80
21335;DHT22;69435;52.670;13.544;2023-12-20T08:00:44;7.30;70.80
21335;DHT22;69435;52.670;13.544;2023-12-20T08:03:30;7.30;70.90
21335;DHT22;69435;52.670;13.544;2023-12-20T08:06:16;7.40;70.80
21335;DHT22;69435;52.670;13.544;2023-12-20T08:09:03;7.40;70.70
21335;DHT22;69435;52.670;13.544;2023-12-20T08:11:49;7.40;70.80
21335;DHT22;69435;52.670;13.544;2023-12-20T08:14:35;7.40;71.00
21335;DHT22;69435;52.670;13.544;2023-12-20T08:17:21;7.40;70.60
21335;DHT22;69435;52.670;13.544;2023-12-20T08:20:08;7.40;70.10
21335;DHT22;69435;52.670;13.544;2023-12-20T08:22:55;7.40;70.40
21335;DHT22;69435;52.670;13.544;2023-12-20T08:25:41;7.40;70.10
21335;DHT22;69435;52.670;13.544;2023-12-20T08:28:27;7.40;70.40
21335;DHT22;69435;52.670;13.544;2023-12-20T08:31:16;7.40;70.30
21335;DHT22;69435;52.670;13.544;2023-12-20T08:34:03;7.40;70.30
21335;DHT22;69435;52.670;13.544;2023-12-20T08:36:50;7.40;69.70
21335;DHT22;69435;52.670;13.544;2023-12-20T08:39:37;7.40;69.90
21335;DHT22;69435;52.670;13.544;2023-12-20T08:42:23;7.40;70.00
21335;DHT22;69435;52.670;13.544;2023-12-20T08:45:10;7.40;69.80
21335;DHT22;69435;52.670;13.544;2023-12-20T08:47:56;7.50;69.80
21335;DHT22;69435;52.670;13.544;2023-12-20T08:50:42;7.40;69.80
21335;DHT22;69435;52.670;13.544;2023-12-20T08:53:29;7.50;70.00
21335;DHT22;69435;52.670;13.544;2023-12-20T08:56:15;7.50;69.80
21335;DHT22;69435;52.670;13.544;2023-12-20T08:59:02;7.60;69.70
21335;DHT22;69435;52.670;13.544;2023-12-20T09:01:48;7.60;69.80
21335;DHT22;69435;52.670;13.544;2023-12-20T09:04:39;7.70;69.20
21335;DHT22;69435;52.670;13.544;2023-12-20T09:07:26;7.70;69.30
21335;DHT22;69435;52.670;13.544;2023-12-20T09:10:13;7.70;68.80
21335;DHT22;69435;52.670;13.544;2023-12-20T09:12:59;7.70;69.00
21335;DHT22;69435;52.670;13.544;2023-12-20T09:15:45;7.80;69.20
21335;DHT22;69435;52.670;13.544;2023-12-20T09:18:31;7.80;68.20
21335;DHT22;69435;52.670;13.544;2023-12-20T09:21:17;7.80;68.10
21335;DHT22;69435;52.670;13.544;2023-12-20T09:24:03;7.80;68.10
21335;DHT22;69435;52.670;13.544;2023-12-20T09:26:49;7.80;67.50
21335;DHT22;69435;52.670;13.544;2023-12-20T09:29:35;7.80;68.10
21335;DHT22;69435;52.670;13.544;2023-12-20T09:32:21;7.90;67.70
21335;DHT22;69435;52.670;13.544;2023-12-20T09:35:07;7.90;67.80
21335;DHT22;69435;52.670;13.544;2023-12-20T09:37:54;7.90;67.40
21335;DHT22;69435;52.670;13.544;2023-12-20T09:40:41;7.90;67.90
21335;DHT22;69435;52.670;13.544;2023-12-20T09:43:29;7.90;68.20
21335;DHT22;69435;52.670;13.544;2023-12-20T09:46:18;7.90;67.90
21335;DHT22;69435;52.670;13.544;2023-12-20T09:49:10;7.90;68.00
21335;DHT22;69435;52.670;13.544;2023-12-20T09:51:57;7.90;67.70
21335;DHT22;69435;52.670;13.544;2023-12-20T09:54:48;7.80;67.90
21335;DHT22;69435;52.670;13.544;2023-12-20T09:57:37;7.90;69.10
21335;DHT22;69435;52.670;13.544;2023-12-20T10:00:23;7.90;68.50
21335;DHT22;69435;52.670;13.544;2023-12-20T10:03:09;7.90;67.80
21335;DHT22;69435;52.670;13.544;2023-12-20T10:05:57;7.90;67.80
21335;DHT22;69435;52.670;13.544;2023-12-20T10:08:46;7.90;67.70
21335;DHT22;69435;52.670;13.544;2023-12-20T10:11:32;7.90;68.30
21335;DHT22;69435;52.670;13.544;2023-12-20T10:14:21;7.90;68.20
21335;DHT22;69435;52.670;13.544;2023-12-20T10:17:08;8.00;67.80
21335;DHT22;69435;52.670;13.544;2023-12-20T10:19:54;7.90;67.40
21335;DHT22;69435;52.670;13.544;2023-12-20T10:22:40;7.90;68.20
21335;DHT22;69435;52.670;13.544;2023-12-20T10:25:27;7.90;67.80
21335;DHT22;69435;52.670;13.544;2023-12-20T10:28:16;8.00;68.40
21335;DHT22;69435;52.670;13.544;2023-12-20T10:31:08;8.00;68.20
21335;DHT22;69435;52.670;13.544;2023-12-20T10:33:56;8.10;67.70
21335;DHT22;69435;52.670;13.544;2023-12-20T10:36:44;8.10;67.60
21335;DHT22;69435;52.670;13.544;2023-12-20T10:39:30;8.10;67.50
21335;DHT22;69435;52.670;13.544;2023-12-20T10:42:20;8.10;66.20
21335;DHT22;69435;52.670;13.544;2023-12-20T10:45:07;8.00;66.60
21335;DHT22;69435;52.670;13.544;2023-12-20T10:47:54;8.00;66.30
21335;DHT22;69435;52.670;13.544;2023-12-20T10:50:42;8.00;66.90
21335;DHT22;69435;52.670;13.544;2023-12-20T10:53:30;8.00;67.60
21335;DHT22;69435;52.670;13.544;2023-12-20T10:56:17;8.00;67.30
21335;DHT22;69435;52.670;13.544;2023-12-20T10:59:05;8.10;66.90
21335;DHT22;69435;52.670;13.544;2023-12-20T11:01:56;8.10;66.90
21335;DHT22;69435;52.670;13.544;2023-12-20T11:05:06;8.10;67.20
21335;DHT22;69435;52.670;13.544;2023-12-20T11:08:07;8.20;67.30
21335;DHT22;69435;52.670;13.544;2023-12-20T11:11:07;8.10;67.00
21335;DHT22;69435;52.670;13.544;2023-12-20T11:14:05;8.10;67.20
21335;DHT22;69435;52.670;13.544;2023-12-20T11:17:08;8.10;67.00
21335;DHT22;69435;52.670;13.544;2023-12-20T11:22:54;8.10;67.10
21335;DHT22;69435;52.670;13.544;2023-12-20T11:25:48;8.10;66.70
21335;DHT22;69435;52.670;13.544;2023-12-20T11:28:37;8.10;66.60
21335;DHT22;69435;52.670;13.544;2023-12-20T11:31:23;8.10;66.60
21335;DHT22;69435;52.670;13.544;2023-12-20T11:34:17;8.10;66.00
21335;DHT22;69435;52.670;13.544;2023-12-20T11:37:03;8.10;66.90
21335;DHT22;69435;52.670;13.544;2023-12-20T11:39:56;8.10;67.00
21335;DHT22;69435;52.670;13.544;2023-12-20T11:42:43;8.10;67.20
21335;DHT22;69435;52.670;13.544;2023-12-20T11:45:31;8.10;67.20
21335;DHT22;69435;52.670;13.544;2023-12-20T11:48:18;8.10;67.60
21335;DHT22;69435;52.670;13.544;2023-12-20T11:51:11;8.10;67.70
21335;DHT22;69435;52.670;13.544;2023-12-20T11:53:58;8.10;67.60
21335;DHT22;69435;52.670;13.544;2023-12-20T11:56:44;8.10;67.80
21335;DHT22;69435;52.670;13.544;2023-12-20T11:59:31;8.10;67.80
21335;DHT22;69435;52.670;13.544;2023-12-20T12:02:17;8.10;68.00
21335;DHT22;69435;52.670;13.544;2023-12-20T12:05:03;8.10;68.20
21335;DHT22;69435;52.670;13.544;2023-12-20T12:07:52;8.10;68.20
21335;DHT22;69435;52.670;13.544;2023-12-20T12:10:39;8.10;68.10
21335;DHT22;69435;52.670;13.544;2023-12-20T12:13:25;8.10;68.00
21335;DHT22;69435;52.670;13.544;2023-12-20T12:16:17;8.10;68.00
21335;DHT22;69435;52.670;13.544;2023-12-20T12:19:04;8.10;68.10
21335;DHT22;69435;52.670;13.544;2023-12-20T12:21:51;8.10;67.80
21335;DHT22;69435;52.670;13.544;2023-12-20T12:24:49;8.10;67.60
21335;DHT22;69435;52.670;13.544;2023-12-20T12:27:35;8.10;67.70
21335;DHT22;69435;52.670;13.544;2023-12-20T12:30:21;8.00;68.20
21335;DHT22;69435;52.670;13.544;2023-12-20T12:33:07;8.00;68.40
21335;DHT22;69435;52.670;13.544;2023-12-20T12:35:54;8.00;68.70
21335;DHT22;69435;52.670;13.544;2023-12-20T12:38:41;8.00;69.20
21335;DHT22;69435;52.670;13.544;2023-12-20T12:41:29;7.90;69.70
21335;DHT22;69435;52.670;13.544;2023-12-20T12:44:15;7.90;69.90
21335;DHT22;69435;52.670;13.544;2023-12-20T12:47:01;7.90;70.10
21335;DHT22;69435;52.670;13.544;2023-12-20T12:49:50;7.90;70.20
21335;DHT22;69435;52.670;13.544;2023-12-20T12:52:37;7.80;70.10
21335;DHT22;69435;52.670;13.544;2023-12-20T12:55:23;7.80;70.20
21335;DHT22;69435;52.670;13.544;2023-12-20T12:58:09;7.80;70.70
21335;DHT22;69435;52.670;13.544;2023-12-20T13:00:55;7.80;70.90
21335;DHT22;69435;52.670;13.544;2023-12-20T13:03:42;7.80;70.60
21335;DHT22;69435;52.670;13.544;2023-12-20T13:06:28;7.80;71.00
21335;DHT22;69435;52.670;13.544;2023-12-20T13:09:14;7.80;71.00
21335;DHT22;69435;52.670;13.544;2023-12-20T13:12:01;7.70;71.30
21335;DHT22;69435;52.670;13.544;2023-12-20T13:14:49;7.60;70.80
21335;DHT22;69435;52.670;13.544;2023-12-20T13:17:35;7.50;70.50
21335;DHT22;69435;52.670;13.544;2023-12-20T13:20:21;7.40;70.80
21335;DHT22;69435;52.670;13.544;2023-12-20T13:23:07;7.30;71.30
21335;DHT22;69435;52.670;13.544;2023-12-20T13:25:53;7.20;72.00
21335;DHT22;69435;52.670;13.544;2023-12-20T13:28:39;7.20;72.40
21335;DHT22;69435;52.670;13.544;2023-12-20T13:31:25;7.20;72.00
21335;DHT22;69435;52.670;13.544;2023-12-20T13:34:11;7.20;71.70
21335;DHT22;69435;52.670;13.544;2023-12-20T13:36:58;7.20;71.60
21335;DHT22;69435;52.670;13.544;2023-12-20T13:39:44;7.20;71.70
21335;DHT22;69435;52.670;13.544;2023-12-20T13:42:30;7.20;71.90
21335;DHT22;69435;52.670;13.544;2023-12-20T13:45:16;7.20;71.90
21335;DHT22;69435;52.670;13.544;2023-12-20T13:48:02;7.30;72.10
21335;DHT22;69435;52.670;13.544;2023-12-20T13:50:48;7.30;72.10
21335;DHT22;69435;52.670;13.544;2023-12-20T13:53:34;7.30;72.20
21335;DHT22;69435;52.670;13.544;2023-12-20T13:56:20;7.40;72.00
21335;DHT22;69435;52.670;13.544;2023-12-20T13:59:06;7.40;71.70
21335;DHT22;69435;52.670;13.544;2023-12-20T14:01:52;7.40;71.30
21335;DHT22;69435;52.670;13.544;2023-12-20T14:04:38;7.40;70.70
21335;DHT22;69435;52.670;13.544;2023-12-20T14:07:24;7.40;70.50
21335;DHT22;69435;52.670;13.544;2023-12-20T14:10:12;7.30;70.40
21335;DHT22;69435;52.670;13.544;2023-12-20T14:13:01;7.30;70.20
21335;DHT22;69435;52.670;13.544;2023-12-20T14:15:47;7.30;69.80
21335;DHT22;69435;52.670;13.544;2023-12-20T14:18:35;7.20;69.60
21335;DHT22;69435;52.670;13.544;2023-12-20T14:21:20;7.20;69.30
21335;DHT22;69435;52.670;13.544;2023-12-20T14:24:07;7.10;69.20
21335;DHT22;69435;52.670;13.544;2023-12-20T14:26:53;7.10;69.20
21335;DHT22;69435;52.670;13.544;2023-12-20T14:29:39;7.10;69.10
21335;DHT22;69435;52.670;13.544;2023-12-20T14:32:26;7.10;69.50
21335;DHT22;69435;52.670;13.544;2023-12-20T14:35:14;7.10;69.10
21335;DHT22;69435;52.670;13.544;2023-12-20T14:38:00;7.20;69.00
21335;DHT22;69435;52.670;13.544;2023-12-20T14:40:46;7.10;68.90
21335;DHT22;69435;52.670;13.544;2023-12-20T14:43:32;7.20;68.90
21335;DHT22;69435;52.670;13.544;2023-12-20T14:46:18;7.20;68.80
21335;DHT22;69435;52.670;13.544;2023-12-20T14:49:07;7.20;68.20
21335;DHT22;69435;52.670;13.544;2023-12-20T14:51:54;7.20;67.90
21335;DHT22;69435;52.670;13.544;2023-12-20T14:54:39;7.20;67.80
21335;DHT22;69435;52.670;13.544;2023-12-20T14:57:27;7.20;67.30
21335;DHT22;69435;52.670;13.544;2023-12-20T15:00:15;7.20;67.60
21335;DHT22;69435;52.670;13.544;2023-12-20T15:03:02;7.20;67.90
21335;DHT22;69435;52.670;13.544;2023-12-20T15:05:50;7.10;67.80
21335;DHT22;69435;52.670;13.544;2023-12-20T15:08:36;7.10;68.00
21335;DHT22;69435;52.670;13.544;2023-12-20T15:11:22;7.00;67.80
21335;DHT22;69435;52.670;13.544;2023-12-20T15:14:08;7.00;68.20
21335;DHT22;69435;52.670;13.544;2023-12-20T15:16:54;6.90;68.20
21335;DHT22;69435;52.670;13.544;2023-12-20T15:19:41;6.80;68.20
21335;DHT22;69435;52.670;13.544;2023-12-20T15:22:28;6.80;68.20
21335;DHT22;69435;52.670;13.544;2023-12-20T15:25:15;6.70;68.50
21335;DHT22;69435;52.670;13.544;2023-12-20T15:28:07;6.70;68.40
21335;DHT22;69435;52.670;13.544;2023-12-20T15:30:53;6.60;67.90
21335;DHT22;69435;52.670;13.544;2023-12-20T15:33:39;6.60;68.40
21335;DHT22;69435;52.670;13.544;2023-12-20T15:36:25;6.50;68.90
21335;DHT22;69435;52.670;13.544;2023-12-20T15:39:11;6.50;69.30
21335;DHT22;69435;52.670;13.544;2023-12-20T15:42:00;6.50;69.50
21335;DHT22;69435;52.670;13.544;2023-12-20T15:44:45;6.50;69.60
21335;DHT22;69435;52.670;13.544;2023-12-20T15:47:32;6.50;69.70
21335;DHT22;69435;52.670;13.544;2023-12-20T15:50:21;6.50;69.70
21335;DHT22;69435;52.670;13.544;2023-12-20T15:53:07;6.50;69.80
21335;DHT22;69435;52.670;13.544;2023-12-20T15:55:52;6.50;69.70
21335;DHT22;69435;52.670;13.544;2023-12-20T15:58:38;6.50;69.80
21335;DHT22;69435;52.670;13.544;2023-12-20T16:01:24;6.50;69.70
21335;DHT22;69435;52.670;13.544;2023-12-20T16:04:10;6.50;69.60
21335;DHT22;69435;52.670;13.544;2023-12-20T16:06:56;6.40;69.30
21335;DHT22;69435;52.670;13.544;2023-12-20T16:09:42;6.40;69.30
21335;DHT22;69435;52.670;13.544;2023-12-20T16:12:28;6.40;69.30
21335;DHT22;69435;52.670;13.544;2023-12-20T16:15:14;6.40;69.20
21335;DHT22;69435;52.670;13.544;2023-12-20T16:18:00;6.30;69.30
21335;DHT22;69435;52.670;13.544;2023-12-20T16:20:47;6.30;69.30
21335;DHT22;69435;52.670;13.544;2023-12-20T16:23:33;6.30;69.40
21335;DHT22;69435;52.670;13.544;2023-12-20T16:26:19;6.30;69.50
21335;DHT22;69435;52.670;13.544;2023-12-20T16:29:05;6.20;69.50
21335;DHT22;69435;52.670;13.544;2023-12-20T16:31:51;6.20;69.50
21335;DHT22;69435;52.670;13.544;2023-12-20T16:34:37;6.20;69.70
21335;DHT22;69435;52.670;13.544;2023-12-20T16:37:23;6.10;69.60
21335;DHT22;69435;52.670;13.544;2023-12-20T16:40:09;6.10;69.70
21335;DHT22;69435;52.670;13.544;2023-12-20T16:42:56;6.10;69.90
21335;DHT22;69435;52.670;13.544;2023-12-20T16:45:42;6.10;70.00
21335;DHT22;69435;52.670;13.544;2023-12-20T16:48:28;6.10;70.10
21335;DHT22;69435;52.670;13.544;2023-12-20T16:51:14;6.20;70.10
21335;DHT22;69435;52.670;13.544;2023-12-20T16:54:00;6.10;69.70
21335;DHT22;69435;52.670;13.544;2023-12-20T16:56:47;6.10;69.70
21335;DHT22;69435;52.670;13.544;2023-12-20T16:59:33;6.20;69.70
21335;DHT22;69435;52.670;13.544;2023-12-20T17:02:19;6.20;69.40
21335;DHT22;69435;52.670;13.544;2023-12-20T17:05:05;6.30;69.30
21335;DHT22;69435;52.670;13.544;2023-12-20T17:07:51;6.20;69.10
21335;DHT22;69435;52.670;13.544;2023-12-20T17:10:37;6.30;69.20
21335;DHT22;69435;52.670;13.544;2023-12-20T17:13:23;6.30;69.10
21335;DHT22;69435;52.670;13.544;2023-12-20T17:16:09;6.30;69.20
21335;DHT22;69435;52.670;13.544;2023-12-20T17:18:55;6.30;69.10
21335;DHT22;69435;52.670;13.544;2023-12-20T17:21:41;6.40;69.00
21335;DHT22;69435;52.670;13.544;2023-12-20T17:24:28;6.40;68.50
21335;DHT22;69435;52.670;13.544;2023-12-20T17:27:14;6.40;68.60
21335;DHT22;69435;52.670;13.544;2023-12-20T17:30:00;6.40;68.40
21335;DHT22;69435;52.670;13.544;2023-12-20T17:32:46;6.40;68.30
21335;DHT22;69435;52.670;13.544;2023-12-20T17:35:34;6.40;68.30